Spruce Head, Maine
Current Conditions -  °F | °C
As of 4:15 AM on Thursday 23 Oct 2014 (Local Time) from KRKD Reporting Station
Overcast Overcast  
Wind Chill: 50°   Ceiling: 800
Heat Index: 50°   Visibility: 10mi
Dew Point: 48°   Wind: 20mph
Humidity: 94%   Direction: 30°NNE
Pressure: 29.87"   Gusts: 33mph
Location:  44.01°N, 69.13°W
Report Text: KRKD 230815Z AUTO 03017G29KT 10SM OVC008 10/09 A2987 RMK AO1
Loading
Personal Weather Stations






























Interactive Weather Map
Tropical Storm Tracking
New forecast layout! Learn more

10-Day Weather Forecast

Advertisements
Track Severe Weather on mobile